Time;durP1;ratioP1;P1;durP2;ratioP2;P2;SDS_P1;SDS_P2;PMS_P1;PMS_P2;Temp;Humidity;BMP_temperature;BMP_pressure;BME280_temperature;BME280_humidity;BME280_pressure;Samples;Min_cycle;Max_cycle;Signal;HPM_P1;HPM_P2
2023/09/11 00:02:42;;;;;;;6.20;2.33;;;;;;;16.13;68.86;97373.88;5067195;28;20210;-78
2023/09/11 00:06:03;;;;;;;6.37;2.67;;;;;;;15.83;69.86;97371.34;5047958;28;20196;-78
2023/09/11 00:09:24;;;;;;;2.37;1.83;;;;;;;15.43;71.82;97372.91;5064120;28;20223;-79
2023/09/11 00:12:45;;;;;;;2.23;1.83;;;;;;;15.71;70.66;97366.88;5066431;28;20280;-79
2023/09/11 00:16:06;;;;;;;3.50;1.90;;;;;;;15.10;72.68;97364.47;5066978;28;20239;-78
2023/09/11 00:19:26;;;;;;;2.60;2.13;;;;;;;15.27;72.56;97379.94;5066467;28;20295;-78
2023/09/11 00:22:48;;;;;;;4.37;1.93;;;;;;;15.10;nan;97367.09;5066244;28;20597;-79
2023/09/11 00:26:09;;;;;;;4.20;2.00;;;;;;;15.44;71.56;97352.88;5049772;28;20198;-79
2023/09/11 00:29:32;;;;;;;3.83;2.10;;;;;;;15.43;71.96;97362.47;5048095;28;20709;-78
2023/09/11 00:32:52;;;;;;;7.10;2.37;;;;;;;15.73;70.69;97374.63;5064730;28;20255;-78
2023/09/11 00:36:13;;;;;;;4.60;3.20;;;;;;;15.27;72.83;97360.88;5064525;28;20280;-78
2023/09/11 00:39:34;;;;;;;3.90;2.53;;;;;;;15.62;70.71;97377.88;5066011;28;20861;-79
2023/09/11 00:42:55;;;;;;;2.73;2.30;;;;;;;15.77;70.11;97368.28;5066300;28;20288;-79
2023/09/11 00:46:16;;;;;;;4.77;2.40;;;;;;;15.79;69.02;97374.25;5047712;28;20197;-77
2023/09/11 00:49:37;;;;;;;4.97;2.20;;;;;;;15.86;69.04;97360.75;5066381;28;20215;-79
2023/09/11 00:52:57;;;;;;;5.30;1.90;;;;;;;15.48;70.38;97362.22;5063925;28;20514;-78
2023/09/11 00:56:18;;;;;;;4.07;2.30;;;;;;;15.76;69.58;97359.63;5064262;28;20189;-79
2023/09/11 00:59:39;;;;;;;6.37;2.10;;;;;;;15.61;70.01;97355.34;5064635;28;20217;-78
2023/09/11 01:03:00;;;;;;;4.00;2.33;;;;;;;15.69;69.97;97350.47;5064427;28;20552;-79
2023/09/11 01:06:20;;;;;;;4.27;2.30;;;;;;;15.07;71.88;97359.41;5064375;28;20593;-79
2023/09/11 01:09:41;;;;;;;4.57;2.73;;;;;;;14.81;73.00;97314.94;5066135;28;20185;-79
2023/09/11 01:13:02;;;;;;;4.17;2.40;;;;;;;15.15;71.60;97298.97;5063928;28;20189;-80
2023/09/11 01:16:22;;;;;;;7.87;2.80;;;;;;;15.13;72.22;97348.63;5066601;28;20186;-79
2023/09/11 01:19:18;;;;;;;4.37;2.67;;;;;;;15.13;72.87;97325.16;5063981;28;20258;-79
2023/09/11 01:22:50;;;;;;;3.10;2.30;;;;;;;14.82;72.66;97348.72;5069717;28;20242;-80
2023/09/11 01:26:13;;;;;;;3.30;2.20;;;;;;;14.37;75.15;97328.72;5069788;28;20188;-79
2023/09/11 01:29:06;;;;;;;4.83;2.37;;;;;;;14.84;74.20;97326.00;4972456;28;20196;-78
2023/09/11 01:32:27;;;;;;;2.80;2.10;;;;;;;14.07;76.25;97337.38;5053319;28;20630;-79
2023/09/11 01:35:48;;;;;;;5.17;2.40;;;;;;;14.54;75.20;97317.34;5068056;28;20258;-79
2023/09/11 01:39:09;;;;;;;3.50;2.20;;;;;;;14.74;74.55;97331.84;5051278;28;20598;-79
2023/09/11 01:42:30;;;;;;;2.63;2.00;;;;;;;14.87;73.30;97325.00;5075173;28;20216;-79
2023/09/11 01:45:50;;;;;;;6.53;2.53;;;;;;;14.90;72.75;97322.22;5072381;28;20241;-79
2023/09/11 01:49:11;;;;;;;4.27;2.13;;;;;;;14.79;74.23;97324.59;5069138;28;20204;-78
2023/09/11 01:52:32;;;;;;;3.40;2.30;;;;;;;15.16;73.07;97314.53;5069126;28;20641;-77
2023/09/11 01:56:08;;;;;;;3.10;2.80;;;;;;;14.94;73.46;97319.31;5052647;28;20200;-79
2023/09/11 01:59:29;;;;;;;3.63;2.27;;;;;;;15.26;72.74;97323.50;5067307;28;20303;-77
2023/09/11 02:02:54;;;;;;;4.33;2.00;;;;;;;15.36;71.61;97319.41;5069241;28;20185;-77
2023/09/11 02:06:15;;;;;;;4.67;2.50;;;;;;;15.42;71.58;97315.56;5066515;28;20196;-77
2023/09/11 02:09:36;;;;;;;4.67;1.97;;;;;;;15.34;72.11;97313.44;5068195;28;20251;-80
2023/09/11 02:12:57;;;;;;;2.63;2.10;;;;;;;15.23;71.51;97315.00;5068796;28;20200;-79
2023/09/11 02:16:18;;;;;;;3.50;2.30;;;;;;;15.12;71.94;97315.66;5068755;28;20327;-79
2023/09/11 02:19:39;;;;;;;3.73;2.10;;;;;;;15.05;72.04;97308.25;5051740;28;20232;-80
2023/09/11 02:23:00;;;;;;;5.17;2.00;;;;;;;14.77;72.74;97292.56;5068307;28;20343;-78
2023/09/11 02:26:21;;;;;;;3.03;2.20;;;;;;;14.84;72.61;97304.34;5066442;28;20274;-77
2023/09/11 02:29:41;;;;;;;2.77;2.00;;;;;;;14.99;71.67;97292.97;5035724;28;20189;-78
2023/09/11 02:33:02;;;;;;;3.40;2.00;;;;;;;14.67;72.35;97308.72;5067885;28;20192;-76
2023/09/11 02:36:23;;;;;;;2.77;1.93;;;;;;;14.36;75.10;97293.16;5049341;28;20615;-76
2023/09/11 02:39:44;;;;;;;5.93;2.07;;;;;;;14.45;73.61;97292.66;5066265;28;20220;-76
2023/09/11 02:43:04;;;;;;;3.17;2.27;;;;;;;14.65;73.39;97302.75;5049895;28;20189;-78
2023/09/11 02:46:26;;;;;;;4.17;2.60;;;;;;;14.73;73.08;97283.25;5068212;28;20185;-76
2023/09/11 02:49:46;;;;;;;5.20;2.23;;;;;;;15.02;72.17;97292.81;5065618;28;20189;-75
2023/09/11 02:53:13;;;;;;;4.60;2.20;;;;;;;14.74;73.29;97297.94;5066010;28;20259;-76
2023/09/11 02:56:37;;;;;;;4.80;2.47;;;;;;;14.24;73.55;97227.88;5065789;28;20213;-76
2023/09/11 02:59:58;;;;;;;7.60;2.80;;;;;;;14.84;73.27;97288.69;5066180;28;20221;-77
2023/09/11 03:03:20;;;;;;;9.20;2.70;;;;;;;15.20;71.97;97302.16;5065704;28;20246;-76
2023/09/11 03:06:41;;;;;;;2.80;2.30;;;;;;;14.37;74.92;97289.66;5065537;28;20193;-77
2023/09/11 03:10:03;;;;;;;2.97;1.90;;;;;;;14.71;74.70;97287.72;5065519;28;20275;-76
2023/09/11 03:13:24;;;;;;;4.30;2.93;;;;;;;15.02;73.33;97291.03;5065976;28;20185;-76
2023/09/11 03:16:51;;;;;;;3.07;2.20;;;;;;;15.07;73.24;97290.75;5065691;28;20597;-76
2023/09/11 03:20:12;;;;;;;5.37;2.47;;;;;;;14.48;74.93;97308.13;5065189;28;20250;-78
2023/09/11 03:23:33;;;;;;;3.13;2.33;;;;;;;14.79;74.82;97291.56;5065403;28;20742;-77
2023/09/11 03:26:54;;;;;;;6.20;2.50;;;;;;;14.23;76.72;97302.59;5047691;28;20288;-78
2023/09/11 03:30:15;;;;;;;5.33;2.77;;;;;;;14.61;75.41;97305.66;5065245;28;20257;-78
2023/09/11 03:33:36;;;;;;;6.07;2.80;;;;;;;14.27;77.00;97298.88;5067032;28;20216;-76
2023/09/11 03:36:57;;;;;;;5.67;2.73;;;;;;;14.18;77.78;97304.59;5067012;28;20182;-78
2023/09/11 03:40:20;;;;;;;6.03;2.60;;;;;;;14.55;77.33;97304.22;5065203;28;20285;-76
2023/09/11 03:43:41;;;;;;;8.67;2.93;;;;;;;14.99;74.17;97308.63;5065163;28;20280;-78
2023/09/11 03:47:02;;;;;;;6.77;2.30;;;;;;;14.40;76.89;97305.13;5053897;28;20699;-78
2023/09/11 03:50:23;;;;;;;6.13;2.60;;;;;;;14.80;74.85;97298.44;5086275;28;20194;-77
2023/09/11 03:53:44;;;;;;;5.03;2.30;;;;;;;14.67;75.33;97293.09;5067482;28;20703;-77
2023/09/11 03:57:06;;;;;;;3.17;2.23;;;;;;;14.96;74.59;97306.22;5068540;28;20193;-75
2023/09/11 04:00:27;;;;;;;7.60;2.33;;;;;;;14.67;74.71;97303.50;5070957;28;20213;-78
2023/09/11 04:03:49;;;;;;;3.73;2.67;;;;;;;14.76;75.52;97311.72;5086464;28;20279;-78
2023/09/11 04:07:11;;;;;;;5.23;2.40;;;;;;;15.11;73.85;97320.94;5050364;28;20199;-76
2023/09/11 04:10:32;;;;;;;4.00;2.13;;;;;;;15.26;72.98;97307.00;5054102;28;20201;-77
2023/09/11 04:13:53;;;;;;;6.73;2.70;;;;;;;15.14;71.77;97318.16;5068202;28;20691;-77
2023/09/11 04:17:13;;;;;;;2.23;1.83;;;;;;;14.39;75.85;97318.22;5050985;28;20734;-77
2023/09/11 04:20:35;;;;;;;4.47;1.97;;;;;;;14.64;74.94;97308.06;5086129;28;20227;-78
2023/09/11 04:23:55;;;;;;;3.10;2.00;;;;;;;14.44;75.75;97313.59;5053369;28;20184;-76
2023/09/11 04:27:16;;;;;;;6.07;2.20;;;;;;;14.81;73.91;97314.94;5068024;28;20189;-77
2023/09/11 04:30:37;;;;;;;16.43;3.20;;;;;;;15.03;73.58;97313.56;5051423;28;20189;-76
2023/09/11 04:33:59;;;;;;;5.17;2.87;;;;;;;14.97;73.13;97320.91;5067910;28;20180;-77
2023/09/11 04:37:20;;;;;;;10.67;2.90;;;;;;;15.44;72.08;97325.03;5067522;28;20211;-78
2023/09/11 04:40:41;;;;;;;7.00;3.77;;;;;;;15.82;70.59;97322.69;5067614;28;20671;-78
2023/09/11 04:44:01;;;;;;;5.53;3.00;;;;;;;16.18;69.52;97320.38;5070201;28;20359;-77
2023/09/11 04:47:24;;;;;;;5.57;2.30;;;;;;;16.18;68.73;97322.13;5067913;28;20231;-78
2023/09/11 04:50:45;;;;;;;3.43;2.17;;;;;;;16.12;68.88;97325.97;5050710;28;20189;-78
2023/09/11 04:54:06;;;;;;;5.77;2.57;;;;;;;16.39;67.59;97319.91;5053194;28;20189;-77
2023/09/11 04:57:27;;;;;;;3.77;2.30;;;;;;;15.92;69.13;97318.56;5071473;28;20186;-77
2023/09/11 05:00:48;;;;;;;7.10;2.40;;;;;;;16.32;68.36;97321.28;5071795;28;20911;-79
2023/09/11 05:04:09;;;;;;;3.87;2.10;;;;;;;16.54;67.66;97316.38;5071476;28;20261;-77
2023/09/11 05:07:30;;;;;;;5.63;2.40;;;;;;;17.23;65.54;97324.75;5073220;28;20208;-77
2023/09/11 05:10:50;;;;;;;2.93;2.30;;;;;;;17.25;65.54;97327.28;5053753;28;20215;-77
2023/09/11 05:14:12;;;;;;;3.53;2.30;;;;;;;17.23;64.66;97311.66;5057340;28;20190;-78
2023/09/11 05:17:33;;;;;;;7.63;2.30;;;;;;;17.11;65.68;97317.75;5071306;28;20673;-77
2023/09/11 05:20:54;;;;;;;5.30;3.50;;;;;;;17.07;65.49;97319.72;5070375;28;20303;-76
2023/09/11 05:24:15;;;;;;;2.23;1.90;;;;;;;16.87;66.76;97315.00;5088158;28;20197;-77
2023/09/11 05:27:36;;;;;;;2.63;2.20;;;;;;;16.99;66.49;97310.72;5088873;28;20195;-77
2023/09/11 05:30:56;;;;;;;2.13;1.87;;;;;;;17.09;66.66;97319.63;5056213;28;20732;-80
2023/09/11 05:34:18;;;;;;;5.33;1.90;;;;;;;16.89;67.29;97312.28;5088798;28;20191;-77
2023/09/11 05:37:40;;;;;;;3.40;1.47;;;;;;;16.95;67.18;97306.63;5088642;28;20218;-77
2023/09/11 05:41:01;;;;;;;7.17;3.50;;;;;;;17.30;66.39;97314.72;5069986;28;20225;-75
2023/09/11 05:44:22;;;;;;;4.17;2.57;;;;;;;17.42;66.11;97306.88;5088844;28;20546;-76
2023/09/11 05:47:44;;;;;;;3.63;2.10;;;;;;;18.01;64.85;97320.25;5072635;28;20344;-76
2023/09/11 05:51:04;;;;;;;5.77;2.30;;;;;;;18.56;62.92;97315.34;5069820;28;20696;-77
2023/09/11 05:54:25;;;;;;;4.07;1.90;;;;;;;18.88;61.74;97313.78;5069657;28;20586;-76
2023/09/11 05:57:46;;;;;;;2.43;2.07;;;;;;;19.03;60.68;97324.94;5055676;28;20282;-77
2023/09/11 06:01:07;;;;;;;6.00;2.20;;;;;;;19.30;59.77;97331.59;5070015;28;20714;-80
2023/09/11 06:04:30;;;;;;;6.60;2.67;;;;;;;19.39;60.06;97330.91;5054971;28;20191;-77
2023/09/11 06:07:51;;;;;;;6.63;2.20;;;;;;;19.36;59.57;97333.78;5086923;28;20199;-77
2023/09/11 06:11:13;;;;;;;3.57;2.20;;;;;;;19.47;59.48;97330.34;5073527;28;20195;-77
2023/09/11 06:14:37;;;;;;;5.03;2.30;;;;;;;19.39;58.60;97324.84;5073668;28;20211;-77
2023/09/11 06:18:03;;;;;;;3.83;2.10;;;;;;;19.09;59.40;97329.72;5088197;28;20202;-77
2023/09/11 06:21:25;;;;;;;12.07;5.83;;;;;;;19.04;59.34;97318.75;5069659;28;20207;-80
2023/09/11 06:24:47;;;;;;;9.93;4.80;;;;;;;19.76;57.83;97338.59;5087150;28;20196;-79
2023/09/11 06:28:09;;;;;;;8.33;3.07;;;;;;;19.99;57.45;97340.28;5087611;28;20261;-80
2023/09/11 06:31:31;;;;;;;11.77;3.00;;;;;;;20.18;56.10;97337.84;5088114;28;20189;-79
2023/09/11 06:34:52;;;;;;;5.03;2.33;;;;;;;20.29;55.40;97345.75;5068938;28;20603;-79
2023/09/11 06:38:14;;;;;;;8.87;2.83;;;;;;;20.34;56.64;97348.84;5087383;28;20189;-79
2023/09/11 06:41:35;;;;;;;4.47;3.17;;;;;;;20.34;56.31;97335.69;5037351;28;20637;-80
2023/09/11 06:44:56;;;;;;;9.60;5.13;;;;;;;20.06;58.22;97333.56;5054210;28;20240;-77
2023/09/11 06:48:17;;;;;;;11.10;3.83;;;;;;;19.32;60.39;97353.31;5069047;28;20515;-79
2023/09/11 06:51:38;;;;;;;5.23;3.20;;;;;;;19.13;61.22;97321.50;5086824;28;20272;-80
2023/09/11 06:54:59;;;;;;;9.77;3.93;;;;;;;19.71;59.67;97331.06;5068058;28;20239;-80
2023/09/11 06:58:20;;;;;;;7.53;3.60;;;;;;;19.80;58.10;97350.53;5069323;28;20203;-78
2023/09/11 07:01:41;;;;;;;5.83;3.00;;;;;;;19.65;58.70;97346.47;5068752;28;20658;-79
2023/09/11 07:05:04;;;;;;;6.37;3.17;;;;;;;19.32;59.95;97337.56;5051674;28;20192;-78
2023/09/11 07:08:25;;;;;;;5.90;2.43;;;;;;;19.26;60.36;97345.06;5051311;28;20276;-79
2023/09/11 07:11:46;;;;;;;7.67;3.77;;;;;;;19.60;58.85;97333.69;5085664;28;20314;-79
2023/09/11 07:15:07;;;;;;;6.03;2.87;;;;;;;19.95;57.50;97344.91;5068775;28;20200;-80
2023/09/11 07:18:28;;;;;;;8.40;3.70;;;;;;;20.39;56.65;97349.34;5085557;28;20337;-78
2023/09/11 07:21:49;;;;;;;5.27;2.87;;;;;;;20.68;55.18;97337.28;5085962;28;20249;-78
2023/09/11 07:25:14;;;;;;;4.17;1.90;;;;;;;20.68;55.37;97355.72;5085869;28;20196;-80
2023/09/11 07:28:36;;;;;;;7.80;2.60;;;;;;;20.69;55.99;97344.22;5086354;28;20700;-79
2023/09/11 07:31:58;;;;;;;5.10;2.93;;;;;;;20.93;55.17;97344.03;5053857;28;20662;-78
2023/09/11 07:35:19;;;;;;;8.67;5.53;;;;;;;20.33;55.50;97352.44;5070103;28;20198;-78
2023/09/11 07:38:44;;;;;;;4.90;2.83;;;;;;;20.20;55.86;97343.84;5085787;28;20184;-81
2023/09/11 07:42:07;;;;;;;5.43;2.80;;;;;;;20.30;54.00;97355.31;5070161;28;20236;-78
2023/09/11 07:45:28;;;;;;;4.60;2.50;;;;;;;20.39;53.82;97333.53;5085021;28;20872;-80
2023/09/11 07:48:50;;;;;;;3.23;2.37;;;;;;;20.97;50.82;97351.53;5085727;28;20190;-80
2023/09/11 07:52:11;;;;;;;7.93;3.20;;;;;;;21.42;46.63;97357.44;5067328;28;20190;-77
2023/09/11 07:55:32;;;;;;;3.63;1.77;;;;;;;21.69;41.96;97354.28;5085602;28;20183;-79
2023/09/11 07:58:52;;;;;;;5.10;2.03;;;;;;;21.91;38.38;97356.75;5085756;28;20688;-76
2023/09/11 08:02:14;;;;;;;10.80;2.30;;;;;;;22.24;38.04;97358.28;5085876;28;20189;-77
2023/09/11 08:05:34;;;;;;;1.83;1.40;;;;;;;21.91;39.19;97354.13;5050495;28;20300;-77
2023/09/11 08:08:56;;;;;;;3.73;1.93;;;;;;;21.72;36.99;97354.03;5085204;28;20186;-79
2023/09/11 08:12:17;;;;;;;3.50;1.67;;;;;;;21.86;36.55;97335.25;5085265;28;20190;-77
2023/09/11 08:15:38;;;;;;;7.23;5.13;;;;;;;22.13;37.71;97347.84;5067626;28;20199;-79
2023/09/11 08:18:58;;;;;;;4.20;2.60;;;;;;;22.31;35.82;97338.31;5066568;28;20195;-79
2023/09/11 08:22:19;;;;;;;3.43;2.63;;;;;;;22.50;35.55;97344.47;5084768;28;20206;-79
2023/09/11 08:25:40;;;;;;;6.47;3.83;;;;;;;22.50;34.75;97336.53;5084654;28;20195;-80
2023/09/11 08:29:02;;;;;;;8.83;2.90;;;;;;;22.58;34.39;97325.34;5066584;28;20205;-81
2023/09/11 08:32:23;;;;;;;3.23;2.37;;;;;;;22.35;32.99;97318.59;5066558;28;20191;-80
2023/09/11 08:35:47;;;;;;;5.50;3.90;;;;;;;22.47;31.11;97336.81;5084128;28;20203;-80
2023/09/11 08:39:07;;;;;;;2.33;1.90;;;;;;;22.83;30.40;97332.75;5051630;28;20224;-81
2023/09/11 08:42:30;;;;;;;2.90;1.60;;;;;;;23.08;30.89;97326.06;5084977;28;20204;-80
2023/09/11 08:45:51;;;;;;;5.53;1.50;;;;;;;23.21;31.03;97321.31;5066792;28;20262;-80
2023/09/11 08:49:15;;;;;;;3.87;2.07;;;;;;;23.23;30.22;97316.72;5052290;28;20220;-80
2023/09/11 08:52:36;;;;;;;5.13;2.20;;;;;;;23.30;29.59;97316.03;5066441;28;20189;-80
2023/09/11 08:55:56;;;;;;;5.73;2.20;;;;;;;23.22;29.50;97320.34;5066077;28;20255;-80
2023/09/11 08:59:18;;;;;;;1.33;1.17;;;;;;;23.29;28.82;97302.94;5065085;28;20232;-80
2023/09/11 09:02:41;;;;;;;4.93;2.20;;;;;;;23.60;29.13;97304.41;5066563;28;20189;-81
2023/09/11 09:06:03;;;;;;;1.70;1.50;;;;;;;23.57;28.32;97304.72;5068656;28;20222;-78
2023/09/11 09:09:24;;;;;;;5.07;1.97;;;;;;;23.68;29.63;97309.00;5065638;28;20189;-78
2023/09/11 09:12:45;;;;;;;4.93;3.00;;;;;;;23.35;29.39;97265.38;5084084;28;20198;-79
2023/09/11 09:16:06;;;;;;;5.70;2.00;;;;;;;23.78;28.88;97305.31;5052647;28;20266;-80
2023/09/11 09:19:29;;;;;;;6.23;2.27;;;;;;;23.95;28.48;97291.34;5084773;28;20321;-80
2023/09/11 09:22:52;;;;;;;3.30;1.53;;;;;;;23.87;28.14;97293.88;5066312;28;20344;-78
2023/09/11 09:26:13;;;;;;;4.90;2.50;;;;;;;24.02;28.02;97286.28;5083808;28;20195;-79
2023/09/11 09:29:35;;;;;;;3.03;1.80;;;;;;;23.78;28.12;97289.44;5084124;28;20190;-76
2023/09/11 09:32:56;;;;;;;3.13;1.50;;;;;;;23.85;28.00;97289.72;5066294;28;20982;-81
2023/09/11 09:36:17;;;;;;;5.57;1.73;;;;;;;24.15;28.28;97271.75;5065711;28;20195;-80
2023/09/11 09:39:39;;;;;;;3.73;1.97;;;;;;;24.06;28.62;97227.66;5083856;28;20223;-80
2023/09/11 09:43:00;;;;;;;4.13;1.67;;;;;;;24.48;27.75;97272.97;5054622;28;20191;-78
2023/09/11 09:46:20;;;;;;;2.43;1.63;;;;;;;24.46;28.04;97263.50;5071968;28;20189;-80
2023/09/11 09:49:42;;;;;;;4.27;1.90;;;;;;;24.57;28.45;97257.97;5087751;28;20241;-78
2023/09/11 09:53:06;;;;;;;7.97;2.73;;;;;;;24.64;28.09;97240.50;5068866;28;20215;-79
2023/09/11 09:56:28;;;;;;;2.47;1.30;;;;;;;24.84;27.58;97264.06;5071438;28;20196;-79
2023/09/11 09:59:52;;;;;;;3.87;2.17;;;;;;;24.91;28.53;97256.31;5087133;28;20226;-80
2023/09/11 10:03:14;;;;;;;6.00;2.13;;;;;;;25.03;28.38;97247.97;5089398;28;20192;-78
2023/09/11 10:06:44;;;;;;;4.13;2.03;;;;;;;25.04;27.81;97248.78;5087437;28;20265;-80
2023/09/11 10:10:05;;;;;;;5.30;1.53;;;;;;;24.94;27.75;97246.25;5038746;28;20638;-78
2023/09/11 10:13:27;;;;;;;3.13;1.90;;;;;;;24.87;27.33;97237.22;5054414;28;20639;-79
2023/09/11 10:16:48;;;;;;;2.27;1.63;;;;;;;24.77;27.51;97233.03;5054305;28;20211;-78
2023/09/11 10:20:11;;;;;;;4.80;2.53;;;;;;;25.16;27.59;97239.63;5087311;28;20326;-79
2023/09/11 10:23:32;;;;;;;4.17;1.70;;;;;;;25.27;27.02;97223.44;5052092;28;20575;-79
2023/09/11 10:26:54;;;;;;;3.33;2.23;;;;;;;25.55;26.88;97238.25;5086236;28;20219;-79
2023/09/11 10:30:23;;;;;;;6.00;1.90;;;;;;;25.72;26.93;97239.97;5069366;28;20951;-78
2023/09/11 10:33:45;;;;;;;4.37;1.90;;;;;;;25.88;26.76;97223.31;5070100;28;20261;-78
2023/09/11 10:37:07;;;;;;;6.90;2.60;;;;;;;26.06;26.76;97223.19;5087235;28;20192;-79
2023/09/11 10:40:29;;;;;;;3.80;1.53;;;;;;;25.86;25.98;97217.31;5086842;28;20533;-78
2023/09/11 10:43:50;;;;;;;4.03;2.10;;;;;;;25.83;26.39;97215.81;5068457;28;20210;-79
2023/09/11 10:47:14;;;;;;;6.73;2.20;;;;;;;25.93;26.29;97220.13;5068773;28;20193;-78
2023/09/11 10:50:38;;;;;;;4.30;1.90;;;;;;;26.09;25.87;97220.25;5069225;28;20184;-80
2023/09/11 10:53:59;;;;;;;8.73;2.07;;;;;;;26.02;26.00;97203.25;5070400;28;20219;-79
2023/09/11 10:57:20;;;;;;;7.37;2.87;;;;;;;26.22;25.74;97194.88;5086753;28;20485;-79
2023/09/11 11:00:40;;;;;;;4.90;2.17;;;;;;;26.39;26.46;97204.53;5086463;28;20220;-79
2023/09/11 11:04:04;;;;;;;4.90;2.27;;;;;;;26.39;25.84;97195.75;5037532;28;20185;-78
2023/09/11 11:07:25;;;;;;;4.20;1.93;;;;;;;26.36;26.47;97202.19;5086580;28;20283;-79
2023/09/11 11:10:47;;;;;;;4.90;2.00;;;;;;;26.48;25.97;97194.75;5069097;28;20196;-80
2023/09/11 11:14:08;;;;;;;2.80;1.70;;;;;;;26.53;26.19;97195.09;5067727;28;20184;-78
2023/09/11 11:17:35;;;;;;;3.80;1.97;;;;;;;26.65;25.63;97188.44;5051572;28;20214;-78
2023/09/11 11:20:56;;;;;;;4.03;1.60;;;;;;;26.72;25.60;97186.81;5086852;28;20220;-80
2023/09/11 11:24:35;;;;;;;4.73;2.00;;;;;;;26.53;25.78;97181.81;5053762;28;20223;-78
2023/09/11 11:27:59;;;;;;;3.30;1.70;;;;;;;26.29;25.46;97179.97;5086169;28;20224;-78
2023/09/11 11:31:20;;;;;;;2.77;1.60;;;;;;;26.27;25.57;97170.50;5067971;28;20204;-80
2023/09/11 11:34:41;;;;;;;3.47;1.40;;;;;;;26.41;25.24;97165.38;5070097;28;20594;-78
2023/09/11 11:38:02;;;;;;;3.00;1.67;;;;;;;26.32;25.44;97168.16;5086296;28;20215;-79
2023/09/11 11:41:23;;;;;;;4.53;1.70;;;;;;;25.90;25.60;97162.09;5085834;28;20188;-79
2023/09/11 11:44:45;;;;;;;3.10;1.60;;;;;;;26.27;25.91;97157.22;5063852;28;20232;-78
2023/09/11 11:48:07;;;;;;;3.20;1.67;;;;;;;26.30;25.50;97157.72;5064112;28;20243;-77
2023/09/11 11:51:27;;;;;;;2.33;1.57;;;;;;;26.35;25.51;97135.97;5064559;28;20194;-78
2023/09/11 11:54:49;;;;;;;3.13;1.60;;;;;;;26.50;25.06;97158.25;5066330;28;20201;-79
2023/09/11 11:58:12;;;;;;;6.80;1.73;;;;;;;26.48;25.12;97138.97;5066428;28;20222;-79
2023/09/11 12:01:42;;;;;;;6.23;1.60;;;;;;;26.84;25.14;97140.31;5063983;28;20190;-79
2023/09/11 12:05:04;;;;;;;2.60;1.93;;;;;;;26.95;24.87;97136.47;5063636;28;20189;-79
2023/09/11 12:08:27;;;;;;;4.57;1.63;;;;;;;26.51;24.54;97136.81;5050268;28;20366;-79
2023/09/11 12:11:52;;;;;;;1.80;1.27;;;;;;;26.16;24.99;97141.59;5066213;28;20185;-81
2023/09/11 12:15:13;;;;;;;3.53;1.73;;;;;;;26.54;24.57;97136.47;5063752;28;20219;-79
2023/09/11 12:18:37;;;;;;;6.27;2.00;;;;;;;26.72;23.87;97133.69;5063862;28;20185;-80
2023/09/11 12:21:59;;;;;;;5.00;1.93;;;;;;;26.80;23.82;97122.19;5065684;28;20333;-78
2023/09/11 12:25:21;;;;;;;3.07;2.23;;;;;;;26.91;23.83;97124.50;5065973;28;20197;-80
2023/09/11 12:28:42;;;;;;;3.37;2.30;;;;;;;27.11;23.30;97128.44;5063181;28;20699;-80
2023/09/11 12:32:03;;;;;;;5.10;2.63;;;;;;;27.12;23.96;97111.50;5065628;28;20206;-80
2023/09/11 12:35:24;;;;;;;2.70;2.00;;;;;;;26.80;23.37;97120.38;5065698;28;20197;-78
2023/09/11 12:38:51;;;;;;;6.07;2.40;;;;;;;26.51;23.67;97115.56;5063366;28;20212;-78
2023/09/11 12:42:12;;;;;;;8.57;2.47;;;;;;;26.94;23.80;97106.38;5046974;28;20679;-78
2023/09/11 12:45:34;;;;;;;5.17;2.40;;;;;;;27.11;23.39;97105.34;5063328;28;20228;-79
2023/09/11 12:48:57;;;;;;;4.47;2.70;;;;;;;27.33;23.24;97117.06;5063767;28;20189;-79
2023/09/11 12:52:17;;;;;;;6.47;2.83;;;;;;;27.27;23.49;97107.13;5063800;28;20251;-79
2023/09/11 12:55:38;;;;;;;7.90;4.73;;;;;;;27.35;24.10;97093.81;5046481;28;20181;-80
2023/09/11 12:58:59;;;;;;;4.03;3.33;;;;;;;27.13;23.01;97057.31;5065401;28;20177;-80
2023/09/11 13:02:21;;;;;;;4.27;3.27;;;;;;;27.09;23.34;97110.00;5065187;28;20278;-80
2023/09/11 13:05:43;;;;;;;6.17;4.10;;;;;;;27.04;22.74;97108.84;5048022;28;20204;-80
2023/09/11 13:09:08;;;;;;;9.37;3.97;;;;;;;27.10;22.71;97108.19;5063721;28;20262;-80
2023/09/11 13:12:29;;;;;;;4.47;3.73;;;;;;;27.13;22.96;97100.69;5065530;28;20215;-80
2023/09/11 13:15:50;;;;;;;6.47;3.50;;;;;;;27.42;22.72;97104.59;5060988;28;20201;-77
2023/09/11 13:19:12;;;;;;;3.67;2.47;;;;;;;27.14;22.20;97102.34;5068187;28;20312;-78
2023/09/11 13:22:32;;;;;;;4.40;2.77;;;;;;;26.80;22.63;97109.75;5067236;28;20189;-79
2023/09/11 13:25:55;;;;;;;7.63;2.90;;;;;;;26.67;22.81;97096.09;5067722;28;20659;-78
2023/09/11 13:29:17;;;;;;;6.37;2.80;;;;;;;26.50;22.55;97103.25;5069119;28;20215;-79
2023/09/11 13:32:37;;;;;;;3.43;2.60;;;;;;;26.67;22.33;97093.44;5068891;28;20241;-78
2023/09/11 13:35:59;;;;;;;1.67;1.37;;;;;;;26.78;20.96;97079.84;5069155;28;20218;-78
2023/09/11 13:39:19;;;;;;;1.83;1.20;;;;;;;26.78;21.09;97085.16;5078675;28;20189;-80
2023/09/11 13:42:43;;;;;;;3.63;1.50;;;;;;;26.71;21.42;97089.44;5068005;28;20189;-78
2023/09/11 13:46:04;;;;;;;3.20;1.40;;;;;;;26.76;20.50;97087.16;5052610;28;20237;-78
2023/09/11 13:49:24;;;;;;;1.20;0.90;;;;;;;26.73;20.76;97092.00;5066863;28;20193;-78
2023/09/11 13:52:45;;;;;;;2.70;1.67;;;;;;;26.80;21.59;97090.31;5066849;28;20339;-78
2023/09/11 13:56:06;;;;;;;2.80;1.33;;;;;;;26.76;21.93;97087.16;5052366;28;20679;-78
2023/09/11 13:59:29;;;;;;;2.03;1.60;;;;;;;27.05;21.37;97087.44;5050296;28;20223;-80
2023/09/11 14:02:51;;;;;;;3.90;1.20;;;;;;;26.92;19.95;97089.78;5068163;28;20208;-77
2023/09/11 14:06:12;;;;;;;1.70;1.20;;;;;;;26.82;19.58;97089.13;5066573;28;20276;-80
2023/09/11 14:09:33;;;;;;;1.30;1.13;;;;;;;26.80;19.74;97077.84;5068950;28;20186;-79
2023/09/11 14:12:55;;;;;;;2.03;1.20;;;;;;;26.70;20.33;97085.16;5066773;28;20648;-79
2023/09/11 14:16:17;;;;;;;1.53;1.00;;;;;;;26.48;21.04;97067.25;5068259;28;20625;-80
2023/09/11 14:19:38;;;;;;;1.30;1.00;;;;;;;26.42;20.45;97052.78;5049445;28;20680;-79
2023/09/11 14:23:02;;;;;;;2.67;1.20;;;;;;;26.63;20.28;97086.81;5068019;28;20198;-80
2023/09/11 14:26:23;;;;;;;1.90;1.27;;;;;;;26.67;20.61;97085.47;5051440;28;20193;-80
2023/09/11 14:29:44;;;;;;;1.30;1.00;;;;;;;26.78;20.17;97079.00;5067765;28;20325;-77
2023/09/11 14:33:04;;;;;;;1.30;0.90;;;;;;;26.73;20.45;97090.13;5051018;28;20204;-79
2023/09/11 14:36:26;;;;;;;1.90;1.20;;;;;;;26.91;20.48;97082.81;5067546;28;20202;-79
2023/09/11 14:39:46;;;;;;;1.30;1.10;;;;;;;26.46;20.63;97078.03;5065721;28;20225;-79
2023/09/11 14:43:09;;;;;;;2.47;1.40;;;;;;;26.55;20.93;97085.00;5065729;28;20197;-80
2023/09/11 14:46:30;;;;;;;1.63;1.20;;;;;;;26.47;21.08;97082.34;5067436;28;20193;-80
2023/09/11 14:49:51;;;;;;;1.10;0.97;;;;;;;26.39;21.31;97084.19;5050250;28;20276;-80
2023/09/11 14:53:12;;;;;;;1.53;1.10;;;;;;;26.22;22.44;97061.28;5035156;28;20677;-79
2023/09/11 14:56:32;;;;;;;1.47;1.03;;;;;;;26.37;22.58;97075.56;5066009;28;20181;-78
2023/09/11 14:59:53;;;;;;;1.07;0.93;;;;;;;26.41;22.10;97082.19;5067291;28;20279;-79
2023/09/11 15:03:17;;;;;;;1.40;1.10;;;;;;;26.33;22.50;97071.56;5067395;28;20271;-78
2023/09/11 15:06:39;;;;;;;2.33;0.90;;;;;;;26.15;22.78;97081.53;5067431;28;20185;-79
2023/09/11 15:10:00;;;;;;;3.60;1.10;;;;;;;26.09;22.57;97080.34;5050291;28;20667;-79
2023/09/11 15:13:21;;;;;;;3.30;1.30;;;;;;;26.21;23.01;97075.56;5067437;28;20591;-78
2023/09/11 15:16:42;;;;;;;1.40;1.13;;;;;;;26.00;23.12;97078.66;5065443;28;20267;-80
2023/09/11 15:20:03;;;;;;;1.60;1.40;;;;;;;26.02;23.87;97081.16;5048334;28;20221;-78
2023/09/11 15:23:25;;;;;;;1.30;1.10;;;;;;;25.78;23.13;97076.66;5064936;28;20973;-78
2023/09/11 15:26:46;;;;;;;2.17;1.40;;;;;;;25.57;23.34;97045.28;5065245;28;20259;-79
2023/09/11 15:30:07;;;;;;;1.43;0.83;;;;;;;25.75;23.87;97083.13;5050567;28;20729;-79
2023/09/11 15:33:29;;;;;;;2.73;1.37;;;;;;;25.70;23.89;97081.91;5065038;28;20261;-80
2023/09/11 15:36:50;;;;;;;2.53;1.10;;;;;;;25.71;23.72;97072.97;5064896;28;20199;-79
2023/09/11 15:40:10;;;;;;;2.50;1.10;;;;;;;25.53;24.45;97077.59;5063946;28;20715;-79
2023/09/11 15:43:32;;;;;;;2.60;1.13;;;;;;;25.59;24.12;97051.25;5050665;28;20197;-80
2023/09/11 15:46:53;;;;;;;3.00;1.00;;;;;;;25.51;24.51;97075.06;5050439;28;20200;-79
2023/09/11 15:50:14;;;;;;;1.20;1.10;;;;;;;25.53;24.11;97078.38;5066429;28;20230;-79